Time;durP1;ratioP1;P1;durP2;ratioP2;P2;SDS_P1;SDS_P2;PMS_P1;PMS_P2;Temp;Humidity;BMP_temperature;BMP_pressure;BME280_temperature;BME280_humidity;BME280_pressure;Samples;Min_cycle;Max_cycle;Signal;HPM_P1;HPM_P2
2022/07/29 00:01:57;;;;;;;12.78;3.00;;;;;;;14.98;100.00;101138.33;1729195;82;20901;-43
2022/07/29 00:04:25;;;;;;;6.53;2.87;;;;;;;15.01;100.00;101133.03;1734018;81;21040;-43
2022/07/29 00:06:52;;;;;;;9.45;2.42;;;;;;;15.04;100.00;101134.28;1686467;84;20948;-43
2022/07/29 00:09:18;;;;;;;4.42;2.80;;;;;;;15.00;100.00;101133.50;1709942;82;21001;-43
2022/07/29 00:11:47;;;;;;;5.08;2.20;;;;;;;14.92;100.00;101133.69;1733475;82;20932;-43
2022/07/29 00:14:14;;;;;;;3.27;2.40;;;;;;;14.86;100.00;101139.07;1731095;82;20925;-43
2022/07/29 00:16:42;;;;;;;11.38;2.40;;;;;;;14.76;100.00;101127.15;1734456;82;20984;-43
2022/07/29 00:19:10;;;;;;;2.50;2.00;;;;;;;14.67;100.00;101123.02;1736040;82;20905;-43
2022/07/29 00:21:37;;;;;;;5.35;2.10;;;;;;;14.64;100.00;101133.06;1735806;82;21037;-43
2022/07/29 00:24:05;;;;;;;5.80;2.00;;;;;;;14.60;100.00;101130.12;1732710;82;21154;-43
2022/07/29 00:26:32;;;;;;;9.15;2.22;;;;;;;14.57;100.00;101132.81;1735672;81;20929;-43
2022/07/29 00:29:00;;;;;;;6.37;2.20;;;;;;;14.54;100.00;101142.44;1735978;82;20886;-43
2022/07/29 00:31:26;;;;;;;5.12;2.08;;;;;;;14.49;100.00;101141.23;1736174;82;21494;-43
2022/07/29 00:33:53;;;;;;;10.95;3.17;;;;;;;14.42;100.00;101139.25;1706732;83;21527;-43
2022/07/29 00:36:20;;;;;;;8.53;2.50;;;;;;;14.40;100.00;101141.47;1712064;82;21227;-43
2022/07/29 00:38:49;;;;;;;3.22;2.15;;;;;;;14.40;100.00;101142.34;1735363;82;21428;-43
2022/07/29 00:41:17;;;;;;;4.08;2.50;;;;;;;14.36;100.00;101142.84;1729751;82;20960;-43
2022/07/29 00:43:45;;;;;;;3.40;2.25;;;;;;;14.31;100.00;101139.49;1735833;82;21003;-43
2022/07/29 00:46:13;;;;;;;7.85;2.55;;;;;;;14.28;100.00;101135.66;1735961;82;20921;-42
2022/07/29 00:48:41;;;;;;;7.17;2.72;;;;;;;14.26;100.00;101137.88;1735992;82;22608;-43
2022/07/29 00:51:10;;;;;;;4.20;2.75;;;;;;;14.25;100.00;101140.91;1734844;82;20957;-43
2022/07/29 00:53:37;;;;;;;5.05;2.60;;;;;;;14.24;100.00;101132.69;1735939;82;20929;-43
2022/07/29 00:56:04;;;;;;;3.17;2.40;;;;;;;14.25;100.00;101132.27;1735968;82;20897;-43
2022/07/29 00:58:32;;;;;;;3.72;2.40;;;;;;;14.21;100.00;101122.35;1736049;81;20945;-42
2022/07/29 01:00:59;;;;;;;4.42;2.05;;;;;;;14.18;100.00;101126.33;1734898;82;21258;-43
2022/07/29 01:03:26;;;;;;;15.35;2.15;;;;;;;14.16;100.00;101126.81;1740112;81;21466;-43
2022/07/29 01:05:53;;;;;;;5.33;1.82;;;;;;;14.14;100.00;101128.59;1749858;82;20917;-43
2022/07/29 01:08:21;;;;;;;6.42;1.67;;;;;;;14.12;100.00;101126.02;1749922;80;20971;-43
2022/07/29 01:10:49;;;;;;;6.15;2.30;;;;;;;14.12;100.00;101129.08;1720356;82;20884;-42
2022/07/29 01:13:15;;;;;;;9.43;2.25;;;;;;;14.08;100.00;101124.38;1693389;83;21226;-43
2022/07/29 01:15:58;;;;;;;3.65;1.77;;;;;;;14.07;100.00;101125.27;1698468;82;20948;-43
2022/07/29 01:19:20;;;;;;;5.67;2.50;;;;;;;14.07;100.00;101120.06;1814294;78;22726;-42
2022/07/29 01:21:53;;;;;;;4.78;1.92;;;;;;;14.00;100.00;101123.70;1748593;81;20912;-43
2022/07/29 01:24:49;;;;;;;2.00;1.90;;;;;;;13.94;100.00;101125.56;1756457;81;21882;-43
2022/07/29 01:27:32;;;;;;;;;;;;;;;13.91;100.00;101133.86;1759189;81;20932;-43
2022/07/29 01:30:00;;;;;;;2.67;1.82;;;;;;;13.88;100.00;101132.63;1779510;80;20383;-41
2022/07/29 01:32:29;;;;;;;7.78;2.10;;;;;;;13.85;100.00;101129.64;1788887;80;20892;-41
2022/07/29 01:35:07;;;;;;;4.33;2.10;;;;;;;13.81;100.00;101127.16;1789325;80;20947;-41
2022/07/29 01:38:17;;;;;;;5.50;2.10;;;;;;;13.77;100.00;101133.73;1788542;80;21848;-42
2022/07/29 01:41:05;;;;;;;4.90;1.87;;;;;;;13.74;100.00;101137.67;1787953;80;21026;-43
2022/07/29 01:43:40;;;;;;;5.00;1.92;;;;;;;13.67;100.00;101128.29;1762463;80;21321;-43
2022/07/29 01:46:11;;;;;;;2.50;1.98;;;;;;;13.59;100.00;101128.44;1786407;80;21552;-43
2022/07/29 01:48:46;;;;;;;4.65;2.00;;;;;;;13.54;100.00;101130.74;1788855;80;21549;-43
2022/07/29 01:51:19;;;;;;;2.22;1.80;;;;;;;13.45;100.00;101128.72;1758699;80;21237;-43
2022/07/29 01:54:00;;;;;;;2.70;2.10;;;;;;;13.41;100.00;101130.09;1789344;80;20901;-43
2022/07/29 01:56:30;;;;;;;2.15;2.00;;;;;;;13.34;100.00;101135.39;1720153;81;21059;-43
2022/07/29 01:58:57;;;;;;;5.85;1.90;;;;;;;13.29;100.00;101133.33;1758107;81;20939;-43
2022/07/29 02:01:26;;;;;;;5.10;2.08;;;;;;;13.26;100.00;101128.19;1757965;81;20974;-43
2022/07/29 02:03:53;;;;;;;3.25;1.87;;;;;;;13.23;100.00;101125.20;1788553;80;21252;-42
2022/07/29 02:06:22;;;;;;;5.12;1.80;;;;;;;13.23;100.00;101132.16;1786093;80;20920;-42
2022/07/29 02:08:50;;;;;;;3.77;2.22;;;;;;;13.20;100.00;101130.45;1754869;80;21486;-42
2022/07/29 02:11:17;;;;;;;8.50;2.92;;;;;;;13.20;100.00;101138.72;1754360;81;20868;-42
2022/07/29 02:13:46;;;;;;;5.65;2.67;;;;;;;13.19;100.00;101130.50;1734822;81;20848;-43
2022/07/29 02:16:15;;;;;;;4.37;2.17;;;;;;;13.19;100.00;101133.94;1724582;83;21102;-43
2022/07/29 02:18:43;;;;;;;3.00;1.90;;;;;;;13.22;100.00;101136.48;1729624;81;20912;-43
2022/07/29 02:21:09;;;;;;;5.28;2.02;;;;;;;13.23;100.00;101145.99;1719754;83;21022;-43
2022/07/29 02:23:36;;;;;;;2.15;1.65;;;;;;;13.22;100.00;101143.44;1719734;83;21049;-42
2022/07/29 02:26:03;;;;;;;7.50;2.30;;;;;;;13.19;100.00;101130.50;1725439;83;20939;-42
2022/07/29 02:28:32;;;;;;;5.40;2.15;;;;;;;13.16;100.00;101135.30;1702592;83;21505;-43
2022/07/29 02:31:01;;;;;;;8.83;2.20;;;;;;;13.15;100.00;101136.19;1678648;83;21477;-43
2022/07/29 02:33:28;;;;;;;4.15;2.65;;;;;;;13.14;100.00;101146.17;1729960;83;20915;-43
2022/07/29 02:35:55;;;;;;;3.42;1.90;;;;;;;13.15;100.00;101148.34;1729755;83;20975;-43
2022/07/29 02:41:12;;;;;;;5.47;2.12;;;;;;;13.14;100.00;101142.27;1699170;84;21212;-42
2022/07/29 02:43:40;;;;;;;4.42;2.20;;;;;;;13.14;100.00;101146.17;1669529;84;20972;-42
2022/07/29 02:46:11;;;;;;;5.35;2.12;;;;;;;13.15;100.00;101141.39;1699859;83;21026;-43
2022/07/29 02:48:41;;;;;;;2.55;2.25;;;;;;;13.17;100.00;101138.31;1699286;84;21011;-43
2022/07/29 02:51:13;;;;;;;5.45;2.33;;;;;;;13.22;100.00;101143.44;1699369;84;20908;-42
2022/07/29 02:53:40;;;;;;;4.17;2.33;;;;;;;13.25;100.00;101142.50;1699341;84;21139;-42
2022/07/29 02:56:11;;;;;;;14.05;2.33;;;;;;;13.29;100.00;101141.13;1703779;83;20995;-42
2022/07/29 02:58:44;;;;;;;2.62;1.87;;;;;;;13.33;100.00;101140.64;1685494;85;21027;-42
2022/07/29 03:01:15;;;;;;;7.03;2.83;;;;;;;13.39;100.00;101141.81;1688503;83;21003;-43
2022/07/29 03:03:45;;;;;;;3.72;2.10;;;;;;;13.44;100.00;101147.81;1699847;83;20972;-43
2022/07/29 03:06:14;;;;;;;10.58;2.15;;;;;;;13.53;100.00;101148.54;1707693;83;21158;-43
2022/07/29 03:08:41;;;;;;;5.92;2.17;;;;;;;13.61;100.00;101149.23;1699494;84;21014;-43
2022/07/29 03:11:08;;;;;;;3.62;2.00;;;;;;;13.68;100.00;101144.31;1699951;83;21023;-43
2022/07/29 03:13:36;;;;;;;7.22;1.45;;;;;;;13.75;100.00;101151.09;1699255;84;21015;-43
2022/07/29 03:16:05;;;;;;;6.08;1.90;;;;;;;13.82;100.00;101156.19;1699350;84;20948;-43
2022/07/29 03:18:32;;;;;;;3.50;1.75;;;;;;;13.90;100.00;101150.38;1684290;83;21236;-42
2022/07/29 03:21:00;;;;;;;4.75;1.62;;;;;;;13.99;100.00;101154.06;1717555;82;21048;-43
2022/07/29 03:23:27;;;;;;;8.80;1.70;;;;;;;14.09;100.00;101157.33;1720178;83;21008;-43
2022/07/29 03:25:55;;;;;;;1.92;1.70;;;;;;;14.20;100.00;101159.27;1719763;83;21364;-43
2022/07/29 03:28:22;;;;;;;3.67;1.92;;;;;;;14.31;100.00;101161.63;1719391;82;21024;-43
2022/07/29 03:30:50;;;;;;;5.42;1.60;;;;;;;14.40;100.00;101163.60;1719515;82;21853;-43
2022/07/29 03:33:18;;;;;;;7.60;1.50;;;;;;;14.49;100.00;101164.67;1719903;83;21016;-43
2022/07/29 03:35:44;;;;;;;3.80;1.75;;;;;;;14.58;100.00;101164.48;1712825;83;20979;-43
2022/07/29 03:38:12;;;;;;;7.90;1.85;;;;;;;14.68;100.00;101169.45;1700707;82;20967;-44
2022/07/29 03:40:49;;;;;;;4.30;1.62;;;;;;;14.79;100.00;101163.59;1699581;84;20897;-44
2022/07/29 03:43:17;;;;;;;4.17;1.65;;;;;;;14.90;100.00;101165.89;1700059;84;21217;-43
2022/07/29 03:45:50;;;;;;;7.42;1.60;;;;;;;15.00;100.00;101162.17;1677078;83;21015;-43
2022/07/29 03:48:20;;;;;;;5.28;1.82;;;;;;;15.11;100.00;101171.02;1692072;84;20971;-42
2022/07/29 03:50:50;;;;;;;2.33;1.70;;;;;;;15.22;100.00;101171.58;1714779;82;21017;-42
2022/07/29 03:53:18;;;;;;;5.92;1.75;;;;;;;15.36;100.00;101176.89;1674070;84;20995;-42
2022/07/29 03:55:50;;;;;;;4.65;1.60;;;;;;;15.50;100.00;101177.35;1693317;83;21071;-42
2022/07/29 03:58:19;;;;;;;5.90;1.50;;;;;;;15.69;100.00;101176.00;1697406;82;20939;-43
2022/07/29 04:00:46;;;;;;;12.75;1.55;;;;;;;16.00;100.00;101179.06;1699781;84;20901;-43
2022/07/29 04:03:13;;;;;;;9.25;1.52;;;;;;;16.36;100.00;101170.98;1688202;83;20914;-42
2022/07/29 04:05:40;;;;;;;5.95;1.70;;;;;;;16.76;100.00;101175.38;1719403;83;21008;-43
2022/07/29 04:08:09;;;;;;;6.72;1.60;;;;;;;17.17;100.00;101175.78;1719842;83;20914;-43
2022/07/29 04:10:36;;;;;;;3.72;1.45;;;;;;;17.59;100.00;101174.78;1719778;83;20957;-43
2022/07/29 04:13:05;;;;;;;4.85;1.50;;;;;;;17.99;100.00;101179.81;1692136;83;21649;-43
2022/07/29 04:15:33;;;;;;;1.07;0.98;;;;;;;18.37;100.00;101172.71;1714178;82;20972;-43
2022/07/29 04:18:00;;;;;;;3.45;1.20;;;;;;;18.70;100.00;101170.97;1708730;82;21493;-43
2022/07/29 04:20:29;;;;;;;7.58;1.47;;;;;;;18.99;100.00;101178.55;1751873;81;20892;-43
2022/07/29 04:22:56;;;;;;;5.70;1.05;;;;;;;19.21;100.00;101181.12;1722397;82;20933;-43
2022/07/29 04:25:24;;;;;;;6.83;1.30;;;;;;;19.43;97.61;101173.59;1751765;81;20992;-43
2022/07/29 04:28:00;;;;;;;4.97;1.20;;;;;;;19.59;95.77;101182.50;1751278;81;21007;-43
2022/07/29 04:30:27;;;;;;;4.08;1.10;;;;;;;19.71;92.63;101182.41;1723148;82;21514;-43
2022/07/29 04:32:56;;;;;;;4.97;1.30;;;;;;;19.85;92.79;101189.66;1752262;82;20928;-43
2022/07/29 04:35:22;;;;;;;6.28;1.17;;;;;;;19.99;90.65;101189.05;1751266;81;21545;-43
2022/07/29 04:37:49;;;;;;;2.98;1.35;;;;;;;20.09;89.28;101186.39;1752283;82;20912;-43
2022/07/29 04:40:16;;;;;;;1.75;1.42;;;;;;;20.19;86.74;101188.58;1751386;81;21003;-43
2022/07/29 04:42:45;;;;;;;2.47;1.27;;;;;;;20.27;86.68;101186.42;1722821;82;20924;-43
2022/07/29 04:45:12;;;;;;;2.72;1.32;;;;;;;20.34;85.38;101187.86;1752329;82;21144;-43
2022/07/29 04:47:39;;;;;;;4.12;1.75;;;;;;;20.41;83.91;101187.55;1752014;81;20905;-43
2022/07/29 04:50:08;;;;;;;10.53;2.00;;;;;;;20.45;82.05;101181.22;1714562;82;21004;-43
2022/07/29 04:52:36;;;;;;;3.65;1.55;;;;;;;20.41;82.09;101191.50;1722868;82;20944;-44
2022/07/29 04:55:06;;;;;;;5.97;1.37;;;;;;;20.36;82.50;101192.58;1722808;81;21015;-43
2022/07/29 04:57:33;;;;;;;1.87;1.20;;;;;;;20.43;82.14;101193.11;1722402;82;21935;-43
2022/07/29 05:00:00;;;;;;;4.70;1.45;;;;;;;20.49;83.35;101182.77;1752209;82;20992;-43
2022/07/29 05:02:27;;;;;;;2.62;1.20;;;;;;;20.63;83.02;101182.95;1751513;81;20999;-43
2022/07/29 05:04:56;;;;;;;2.80;1.40;;;;;;;20.83;82.82;101187.69;1751201;81;20897;-43
2022/07/29 05:07:22;;;;;;;8.00;1.72;;;;;;;21.07;82.76;101180.34;1722842;82;20888;-43
2022/07/29 05:09:52;;;;;;;1.80;1.02;;;;;;;21.28;81.26;101190.70;1748374;80;21027;-43
2022/07/29 05:12:20;;;;;;;2.75;1.07;;;;;;;21.48;80.01;101188.81;1740823;80;20967;-43
2022/07/29 05:14:46;;;;;;;3.22;1.40;;;;;;;21.64;79.89;101188.84;1749297;80;20949;-43
2022/07/29 05:17:14;;;;;;;4.83;1.35;;;;;;;21.77;77.30;101191.69;1736599;81;20947;-43
2022/07/29 05:19:42;;;;;;;4.42;1.27;;;;;;;21.91;77.17;101197.53;1747865;80;21403;-43
2022/07/29 05:22:09;;;;;;;3.58;1.40;;;;;;;21.94;77.71;101194.72;1745763;80;21409;-43
2022/07/29 05:24:37;;;;;;;3.87;1.30;;;;;;;22.08;77.35;101195.27;1747112;80;20952;-43
2022/07/29 05:27:04;;;;;;;2.37;1.20;;;;;;;22.18;75.80;101195.61;1746205;80;20928;-44
2022/07/29 05:29:33;;;;;;;9.25;1.50;;;;;;;22.29;77.31;101196.33;1746365;82;20861;-43
2022/07/29 05:32:00;;;;;;;5.53;1.07;;;;;;;22.54;76.62;101194.48;1746119;80;21009;-43
2022/07/29 05:34:28;;;;;;;3.17;1.27;;;;;;;22.77;74.46;101190.98;1744977;82;21243;-43
2022/07/29 05:36:55;;;;;;;6.08;1.47;;;;;;;22.99;73.57;101203.78;1738401;80;20920;-43
2022/07/29 05:39:22;;;;;;;12.23;1.47;;;;;;;23.12;73.20;101197.30;1722355;83;20888;-43
2022/07/29 05:41:49;;;;;;;5.92;1.37;;;;;;;23.28;71.78;101198.58;1722433;83;21049;-43
2022/07/29 05:44:16;;;;;;;1.32;1.27;;;;;;;23.27;70.23;101207.45;1728476;80;20925;-43
2022/07/29 05:46:43;;;;;;;3.85;1.40;;;;;;;23.20;70.25;101212.66;1743623;80;21157;-44
2022/07/29 05:49:12;;;;;;;6.10;1.80;;;;;;;23.22;70.64;101206.36;1751134;81;20995;-43
2022/07/29 05:51:39;;;;;;;5.83;1.40;;;;;;;23.28;70.72;101206.50;1749281;80;20939;-44
2022/07/29 05:54:06;;;;;;;4.50;1.17;;;;;;;23.38;70.38;101207.63;1752188;80;21026;-43
2022/07/29 05:56:33;;;;;;;4.35;1.42;;;;;;;23.53;69.81;101207.64;1743820;80;20858;-43
2022/07/29 05:59:00;;;;;;;2.55;1.10;;;;;;;23.65;68.61;101208.68;1717025;80;21043;-43
2022/07/29 06:01:27;;;;;;;8.83;1.35;;;;;;;23.80;68.67;101209.02;1748304;80;20958;-43
2022/07/29 06:03:54;;;;;;;4.60;1.40;;;;;;;23.87;67.61;101212.59;1743176;80;20944;-43
2022/07/29 06:06:21;;;;;;;4.05;1.17;;;;;;;23.88;68.21;101207.23;1739679;81;21007;-43
2022/07/29 06:08:48;;;;;;;2.47;1.30;;;;;;;24.01;67.30;101208.66;1725923;82;20998;-42
2022/07/29 06:11:17;;;;;;;6.30;1.40;;;;;;;24.07;66.09;101201.64;1747376;82;21100;-44
2022/07/29 06:13:44;;;;;;;8.93;1.20;;;;;;;24.04;65.98;101199.69;1748180;80;20975;-44
2022/07/29 06:16:11;;;;;;;3.80;1.25;;;;;;;23.99;65.90;101195.11;1747122;82;20997;-43
2022/07/29 06:18:38;;;;;;;9.60;1.80;;;;;;;23.99;65.80;101201.27;1740650;80;20956;-42
2022/07/29 06:21:10;;;;;;;7.28;1.20;;;;;;;23.98;65.82;101200.89;1732910;82;20951;-43
2022/07/29 06:23:38;;;;;;;2.47;1.17;;;;;;;24.06;65.87;101192.50;1742259;81;21509;-44
2022/07/29 06:26:06;;;;;;;3.80;1.10;;;;;;;24.06;64.41;101198.63;1735031;82;20990;-44
2022/07/29 06:28:35;;;;;;;3.02;1.45;;;;;;;24.06;64.51;101198.63;1735897;82;20955;-43
2022/07/29 06:31:02;;;;;;;7.87;1.30;;;;;;;24.11;64.06;101193.05;1737946;82;21015;-43
2022/07/29 06:33:29;;;;;;;1.77;1.37;;;;;;;24.22;64.33;101189.72;1738074;82;21042;-44
2022/07/29 06:35:58;;;;;;;4.45;1.37;;;;;;;24.35;63.55;101193.73;1739986;81;21038;-45
2022/07/29 06:38:26;;;;;;;7.05;1.90;;;;;;;24.31;63.81;101187.78;1733907;82;20906;-46
2022/07/29 06:41:07;;;;;;;4.22;1.37;;;;;;;24.28;63.19;101191.95;1733866;82;20956;-43
2022/07/29 06:43:33;;;;;;;6.70;1.40;;;;;;;24.34;62.52;101192.04;1730740;82;21001;-45
2022/07/29 06:46:03;;;;;;;5.78;1.30;;;;;;;24.45;62.35;101193.98;1738673;82;21005;-44
2022/07/29 06:48:30;;;;;;;2.42;1.05;;;;;;;24.48;61.52;101191.96;1738668;82;20995;-44
2022/07/29 06:50:57;;;;;;;3.62;0.98;;;;;;;24.46;60.03;101191.70;1717049;82;21617;-44
2022/07/29 06:53:25;;;;;;;5.80;1.05;;;;;;;24.49;59.30;101187.53;1737552;82;21052;-44
2022/07/29 06:55:52;;;;;;;1.80;0.98;;;;;;;24.56;59.23;101180.05;1739647;80;20942;-43
2022/07/29 06:58:20;;;;;;;3.27;1.17;;;;;;;24.57;58.79;101177.28;1737194;82;20887;-43
2022/07/29 07:00:49;;;;;;;7.83;1.30;;;;;;;24.66;58.33;101178.01;1735269;82;21124;-44
2022/07/29 07:03:17;;;;;;;3.17;1.15;;;;;;;24.64;56.89;101183.02;1733599;82;21482;-44
2022/07/29 07:05:45;;;;;;;7.22;1.25;;;;;;;24.62;57.03;101181.78;1738963;82;21063;-44
2022/07/29 07:08:13;;;;;;;11.80;1.05;;;;;;;24.58;57.93;101177.66;1739408;82;20918;-43
2022/07/29 07:10:40;;;;;;;5.95;1.00;;;;;;;24.65;56.53;101184.72;1744224;82;20923;-44
2022/07/29 07:13:07;;;;;;;3.55;1.40;;;;;;;24.65;55.43;101182.94;1739588;81;21248;-43
2022/07/29 07:15:36;;;;;;;5.53;1.40;;;;;;;24.60;55.86;101173.59;1734288;82;21547;-43
2022/07/29 07:18:05;;;;;;;2.87;1.20;;;;;;;24.61;56.51;101177.94;1738887;82;21530;-43
2022/07/29 07:20:34;;;;;;;3.85;1.57;;;;;;;24.63;57.06;101180.86;1733693;82;20901;-44
2022/07/29 07:23:01;;;;;;;2.70;1.50;;;;;;;24.79;56.28;101180.71;1738346;82;20987;-43
2022/07/29 07:25:29;;;;;;;7.40;1.20;;;;;;;24.93;57.22;101179.77;1743634;82;22239;-44
2022/07/29 07:27:57;;;;;;;2.60;1.37;;;;;;;25.04;54.93;101180.37;1742323;82;20920;-44
2022/07/29 07:30:24;;;;;;;19.35;7.70;;;;;;;25.17;56.79;101181.70;1728834;82;20999;-44
2022/07/29 07:32:51;;;;;;;15.35;5.72;;;;;;;25.32;53.38;101181.56;1711596;82;21478;-43
2022/07/29 07:35:19;;;;;;;5.83;2.08;;;;;;;25.22;53.91;101182.22;1735966;82;21005;-43
2022/07/29 07:37:46;;;;;;;8.33;1.87;;;;;;;25.24;54.74;101186.06;1742582;82;21553;-44
2022/07/29 07:40:13;;;;;;;6.65;2.00;;;;;;;25.27;55.07;101190.31;1735791;82;20952;-43
2022/07/29 07:42:41;;;;;;;2.95;1.27;;;;;;;25.30;54.91;101192.28;1739511;82;20989;-44
2022/07/29 07:45:10;;;;;;;3.45;0.90;;;;;;;25.35;54.43;101195.45;1712184;82;20983;-44
2022/07/29 07:47:37;;;;;;;2.65;0.93;;;;;;;25.45;52.81;101200.09;1735042;82;20980;-44
2022/07/29 07:50:06;;;;;;;3.00;1.12;;;;;;;25.32;53.06;101194.81;1736402;82;21139;-44
2022/07/29 07:52:33;;;;;;;5.53;1.30;;;;;;;25.42;53.74;101196.34;1713821;82;20978;-44
2022/07/29 07:55:01;;;;;;;5.40;1.20;;;;;;;25.51;52.46;101201.88;1732857;82;21014;-43
2022/07/29 07:57:28;;;;;;;3.27;1.02;;;;;;;25.63;53.30;101204.14;1732669;82;20899;-44
2022/07/29 07:59:55;;;;;;;2.15;1.07;;;;;;;25.82;51.60;101201.02;1728375;82;20935;-43
2022/07/29 08:02:22;;;;;;;1.60;0.82;;;;;;;25.90;51.03;101199.16;1741896;82;21238;-43
2022/07/29 08:04:49;;;;;;;2.98;1.00;;;;;;;25.96;50.89;101196.55;1737718;82;21094;-43
2022/07/29 08:07:16;;;;;;;8.93;1.70;;;;;;;26.05;50.74;101192.38;1736480;82;21028;-44
2022/07/29 08:09:45;;;;;;;2.72;1.40;;;;;;;26.22;51.50;101193.83;1738360;82;21057;-43
2022/07/29 08:12:13;;;;;;;2.90;1.15;;;;;;;26.44;48.04;101185.61;1733281;81;20928;-43
2022/07/29 08:14:40;;;;;;;3.47;1.30;;;;;;;26.36;48.97;101187.00;1739012;81;22086;-44
2022/07/29 08:17:09;;;;;;;4.33;1.27;;;;;;;26.22;49.38;101196.48;1733884;82;20984;-44
2022/07/29 08:19:38;;;;;;;1.40;0.80;;;;;;;26.19;51.12;101192.23;1739213;82;20931;-43
2022/07/29 08:22:06;;;;;;;3.10;1.00;;;;;;;26.27;50.50;101193.00;1734321;82;20887;-44
2022/07/29 08:24:46;;;;;;;2.08;1.00;;;;;;;26.51;49.03;101190.31;1729608;82;20849;-43
2022/07/29 08:27:13;;;;;;;1.22;0.70;;;;;;;26.67;49.47;101193.16;1738603;82;21255;-44
2022/07/29 08:29:40;;;;;;;5.87;1.00;;;;;;;26.75;49.04;101194.75;1733463;82;20885;-43
2022/07/29 08:32:07;;;;;;;3.42;1.00;;;;;;;26.78;48.25;101201.64;1739390;82;21011;-43
2022/07/29 08:34:35;;;;;;;3.10;0.93;;;;;;;26.69;47.70;101204.50;1733087;82;20969;-43
2022/07/29 08:37:02;;;;;;;3.52;1.00;;;;;;;26.57;47.99;101200.97;1728787;82;20963;-43
2022/07/29 08:39:30;;;;;;;4.17;1.22;;;;;;;26.30;48.45;101191.94;1733691;82;20978;-43
2022/07/29 08:41:58;;;;;;;1.77;0.72;;;;;;;26.07;50.62;101199.25;1737078;82;21684;-43
2022/07/29 08:44:25;;;;;;;6.92;1.70;;;;;;;26.20;49.95;101198.41;1730872;82;20911;-44
2022/07/29 08:46:52;;;;;;;2.92;1.35;;;;;;;26.37;48.71;101197.98;1738638;82;20904;-46
2022/07/29 08:49:20;;;;;;;4.97;1.10;;;;;;;26.44;48.05;101194.90;1728918;82;21009;-43
2022/07/29 08:51:47;;;;;;;4.40;1.00;;;;;;;26.63;49.71;101201.83;1738727;82;21272;-43
2022/07/29 08:54:17;;;;;;;4.53;1.10;;;;;;;26.86;47.31;101199.27;1742746;82;21499;-43
2022/07/29 08:56:47;;;;;;;6.85;1.10;;;;;;;27.08;48.05;101197.62;1733127;82;21457;-44
2022/07/29 08:59:15;;;;;;;4.33;1.07;;;;;;;27.45;47.98;101181.48;1727620;82;21037;-43
2022/07/29 09:01:43;;;;;;;4.47;0.93;;;;;;;27.64;46.87;101188.87;1740964;82;20976;-44
2022/07/29 09:04:12;;;;;;;1.98;1.17;;;;;;;27.81;44.69;101184.84;1738403;82;21019;-43
2022/07/29 09:06:47;;;;;;;10.68;1.10;;;;;;;28.06;44.51;101185.52;1734285;82;21538;-43
2022/07/29 09:09:14;;;;;;;2.60;0.88;;;;;;;28.25;44.58;101182.72;1739194;82;20987;-44
2022/07/29 09:11:41;;;;;;;2.30;1.00;;;;;;;28.44;41.97;101189.18;1739149;82;21022;-44
2022/07/29 09:14:13;;;;;;;1.85;1.50;;;;;;;28.43;43.30;101183.50;1733698;81;20985;-44
2022/07/29 09:16:55;;;;;;;3.45;1.00;;;;;;;28.48;42.17;101183.45;1741702;82;21157;-43
2022/07/29 09:19:32;;;;;;;1.72;0.90;;;;;;;28.59;44.11;101179.89;1730666;82;20918;-43
2022/07/29 09:22:00;;;;;;;3.75;1.25;;;;;;;28.88;42.38;101181.94;1740503;82;21063;-44
2022/07/29 09:24:45;;;;;;;5.80;1.07;;;;;;;28.94;39.54;101178.77;1739203;81;20933;-45
2022/07/29 09:27:21;;;;;;;4.97;1.20;;;;;;;28.68;41.03;101185.80;1749401;82;20948;-44
2022/07/29 09:30:05;;;;;;;5.00;0.98;;;;;;;28.38;42.85;101182.55;1723127;81;21057;-44
2022/07/29 09:32:34;;;;;;;0.93;0.83;;;;;;;28.42;42.61;101175.98;1707786;82;21375;-44
2022/07/29 09:35:19;;;;;;;11.33;1.67;;;;;;;28.32;42.58;101182.56;1714084;82;20944;-45
2022/07/29 09:37:46;;;;;;;3.90;1.00;;;;;;;28.17;42.43;101182.52;1710817;82;20953;-44
2022/07/29 09:40:20;;;;;;;1.20;1.10;;;;;;;27.88;42.87;101177.70;1747980;82;20947;-44
2022/07/29 09:42:47;;;;;;;3.67;1.02;;;;;;;27.87;42.80;101178.67;1747336;82;21795;-44
2022/07/29 09:45:33;;;;;;;3.65;1.00;;;;;;;27.84;43.71;101173.13;1739116;81;20914;-44
2022/07/29 09:48:16;;;;;;;2.80;1.37;;;;;;;27.87;42.02;101174.20;1742211;82;20945;-45
2022/07/29 09:50:44;;;;;;;6.30;0.90;;;;;;;27.78;42.63;101184.23;1743607;82;20971;-44
2022/07/29 09:53:11;;;;;;;7.37;1.20;;;;;;;27.58;42.75;101178.73;1744298;81;21003;-44
2022/07/29 09:55:51;;;;;;;3.22;0.98;;;;;;;27.53;42.54;101172.44;1752372;81;21246;-44
2022/07/29 09:58:21;;;;;;;1.42;0.95;;;;;;;27.76;43.77;101176.88;1741950;82;21528;-45
2022/07/29 10:00:50;;;;;;;2.87;1.12;;;;;;;28.05;42.55;101162.55;1744335;82;21057;-44
2022/07/29 10:03:17;;;;;;;8.05;0.80;;;;;;;28.23;42.80;101170.85;1742015;82;21465;-44
2022/07/29 10:05:46;;;;;;;2.55;0.90;;;;;;;28.37;42.11;101168.38;1744431;81;20900;-44
2022/07/29 10:08:13;;;;;;;7.90;1.20;;;;;;;28.32;42.33;101173.24;1746686;82;21235;-44
2022/07/29 10:10:42;;;;;;;5.85;1.00;;;;;;;28.24;43.15;101178.36;1747950;82;20897;-45
2022/07/29 10:13:13;;;;;;;3.77;1.25;;;;;;;28.42;42.74;101175.13;1747392;80;21015;-45
2022/07/29 10:15:44;;;;;;;1.95;0.98;;;;;;;28.49;42.87;101177.16;1745414;82;20910;-45
2022/07/29 10:18:14;;;;;;;4.60;0.90;;;;;;;28.39;42.32;101173.08;1751226;81;20938;-44
2022/07/29 10:20:41;;;;;;;2.15;0.80;;;;;;;28.40;41.92;101175.27;1748031;82;21017;-44
2022/07/29 10:23:09;;;;;;;3.22;1.30;;;;;;;28.14;42.65;101165.41;1737340;82;21519;-44
2022/07/29 10:25:37;;;;;;;3.42;0.88;;;;;;;27.89;43.21;101173.59;1739994;82;21496;-43
2022/07/29 10:28:06;;;;;;;5.20;0.65;;;;;;;27.81;40.10;101181.36;1741569;81;20902;-44
2022/07/29 10:30:35;;;;;;;3.58;1.10;;;;;;;27.72;41.89;101176.30;1745746;81;20985;-44
2022/07/29 10:33:16;;;;;;;3.40;0.75;;;;;;;27.86;41.43;101165.87;1728008;82;21143;-43
2022/07/29 10:36:06;;;;;;;1.52;0.90;;;;;;;27.96;41.20;101168.63;1742843;82;20849;-44
2022/07/29 10:38:44;;;;;;;1.67;1.07;;;;;;;28.03;42.87;101163.16;1742637;82;20994;-43
2022/07/29 10:41:28;;;;;;;1.52;1.00;;;;;;;28.07;40.32;101161.11;1747753;82;20990;-44
2022/07/29 10:44:03;;;;;;;1.37;0.85;;;;;;;28.11;42.34;101157.22;1745797;82;21499;-43
2022/07/29 10:46:36;;;;;;;;;;;;;;;28.33;41.06;101170.11;1744253;82;21308;-43
2022/07/29 10:49:20;;;;;;;2.98;1.02;;;;;;;28.51;38.73;101165.89;1740164;82;20569;-43
2022/07/29 10:52:06;;;;;;;3.17;1.37;;;;;;;28.58;39.42;101177.38;1741637;82;20871;-43
2022/07/29 10:54:45;;;;;;;6.08;1.32;;;;;;;28.78;40.95;101173.02;1739326;82;20962;-43
2022/07/29 10:57:19;;;;;;;3.52;1.07;;;;;;;29.16;39.64;101168.06;1745388;82;20999;-44
2022/07/29 10:59:50;;;;;;;4.97;0.95;;;;;;;29.33;40.27;101173.25;1741559;82;21748;-43
2022/07/29 11:02:42;;;;;;;2.15;1.00;;;;;;;29.29;38.17;101166.51;1737621;82;20924;-43
2022/07/29 11:05:20;;;;;;;3.75;1.10;;;;;;;29.19;37.07;101162.47;1746420;82;21538;-43
2022/07/29 11:08:17;;;;;;;3.20;0.50;;;;;;;29.31;37.80;101160.55;1741881;82;20997;-43
2022/07/29 11:10:46;;;;;;;5.05;0.90;;;;;;;29.20;36.77;101162.34;1742734;82;20898;-44
2022/07/29 11:13:35;;;;;;;4.83;0.90;;;;;;;28.84;39.06;101157.87;1736913;82;21238;-44
2022/07/29 11:16:02;;;;;;;2.85;1.25;;;;;;;28.90;38.79;101157.34;1712369;82;20921;-44
2022/07/29 11:18:30;;;;;;;12.95;1.17;;;;;;;29.02;39.78;101155.94;1741769;81;20888;-44
2022/07/29 11:20:59;;;;;;;1.87;1.00;;;;;;;29.26;39.82;101150.28;1736744;82;21475;-43
2022/07/29 11:23:39;;;;;;;1.90;1.00;;;;;;;29.46;36.98;101155.72;1741013;82;21620;-44
2022/07/29 11:26:16;;;;;;;0.82;0.80;;;;;;;29.25;36.94;101149.93;1737016;82;21175;-44
2022/07/29 11:29:11;;;;;;;1.05;0.80;;;;;;;29.10;35.81;101149.45;1747989;82;20949;-43
2022/07/29 11:31:44;;;;;;;2.70;0.98;;;;;;;29.08;36.09;101158.92;1746044;82;20957;-44
2022/07/29 11:34:29;;;;;;;1.50;0.80;;;;;;;28.79;34.94;101154.26;1746305;82;20993;-44
2022/07/29 11:37:14;;;;;;;6.12;1.27;;;;;;;28.71;35.87;101147.39;1747071;82;20922;-44
2022/07/29 11:39:56;;;;;;;4.92;0.90;;;;;;;28.85;36.24;101144.91;1745573;81;20985;-44